หน้าหลัก
METAR-TAF:

METAR-TAF

ท่าอากาศยาน :

Maun, บอตสวานา

ละติจูด: 19-59S, ลองจิจูด: 023-25E, ความสูง: 945 ม.

การสังเกตสภาพอากาศปัจจุบัน

รายงานได้ทำขึ้นเมื่อ 14 ชั่วโมงและ 6 นาทีที่แล้ว ณ เวลา 15:01 UTC
ลม 5 นอตจากตะวันออก/ตะวันออกเฉียงใต้, แปรผันระหว่างตะวันออก และตะวันออกเฉียงใต้
อุณหภูมิ 24°C
ความชื้น 22%
ความกดอากาศ 1024 hPa
ทัศนวิสัย 10 กม. หรือมากกว่า
ไม่มีเมฆต่ำกว่า 1,500 ม. และไม่มีเมฆคิวมูโลนิมบัส

METAR: FBMN 121501Z 11005KT 080V140 CAVOK 24/01 Q1024

เวลา: 07:07 (05:07 UTC)

การพยากรณ์

รายงานได้ทำขึ้นเมื่อ 19 ชั่วโมงและ 7 นาทีที่แล้ว ณ เวลา 10:00 UTC
การพยากรณ์มีผลตั้งแต่วันที่ 12 ณ เวลา 12 UTC จนถึงวันที่ 13 ณ เวลา 12 UTC
ลม 7 นอตจากตะวันออก/ตะวันออกเฉียงใต้
ทัศนวิสัย 10 กม. หรือมากกว่า
ไม่มีเมฆต่ำกว่า 1,500 ม. และไม่มีเมฆคิวมูโลนิมบัส

TAF: FBMN 121000Z 1212/1312 11007KT CAVOK

สังเกตการณ์สภาพอากาศและพยากรณ์อากาศของสนามบินมากกว่า 4000 แห่ง (รายงาน METAR และ TAF).

สถานีที่ดูได้จะแสดงไว้ด้วยจุดสีเหลืองและสีแดงบนแผนที่.

เลื่อนเมาส์ไปเหนือจุดเพื่อดูชื่อสถานี.

แล้วคลิกเพื่อดูสังเกตการณ์และการพยากรณ์สภาพอากาศ.

ในการเปลี่ยนแผนที่: คลิกที่ปุ่มสีเขียวที่มีกากบาทสีดำเพื่อซูมเข้า; ที่ปุ่มสีเขียวที่มีขีดเพื่อซูมออก; หรือที่ลูกศรสีเขียวเพื่อไปยังแผนที่ที่อยู่ติดกัน.


METAR-TAF: